CMA CGM Carmen — A8IE8 — position and weather

sailwx.info

Track history (hours):
 
Tides and Currents Weather Stations Pressure Air Temp Water Temp Dewpoint Dewpoint Depression Visibility Wind Speed Wind Dir Waves Ship Positions

CMA CGM Carmen

Last reported at 2018-Jul-15 18:00 UTC. Time now 2018-Jul-15 20:53 UTC.
Position N 04°18' E 099°12'.

Length 334.1 m; beam 43 m; draft 14.5 m.

Type: Ship (hazmat cat A). MMSI: 636090965.

Wind from 120 at 6 knots

Barometer 1009.7 mb
Air temperature 27.7 ° C
Visibility: greater than 10.8 NM
Dewpoint 23.1 ° C
Water temperature 30.1 ° C

Date/timePositionNaut miles runAvg speedWind from/ knotsBaromVisibWave heightAir tempDewpointWater temp
2018-Jul-15 18:00N 04°18' E 099°12'28314.5 120 / 61009.710.8 27.723.130.1
2018-Jul-14 22:31N 01°31' E 103°01'215.5
2018-Jul-14 22:23N 01°30' E 103°03'615.8
2018-Jul-14 21:59N 01°26' E 103°08'815.9
2018-Jul-14 21:30N 01°22' E 103°14'815.5
2018-Jul-14 20:58N 01°17' E 103°21'714.6
2018-Jul-14 20:30N 01°14' E 103°27'713.5
2018-Jul-14 19:59N 01°12' E 103°34'611.3
2018-Jul-14 19:30N 01°12' E 103°39'4 7.4
2018-Jul-14 19:00N 01°14' E 103°42'5 9.1
2018-Jul-14 18:30N 01°16' E 103°47'0 0.8
2018-Jul-14 17:59N 01°16' E 103°46'0 0.0
2018-Jul-14 17:30N 01°16' E 103°46'0 0.0
2018-Jul-14 16:57N 01°16' E 103°46'0 0.0
2018-Jul-14 16:30N 01°16' E 103°46'0 0.0
2018-Jul-14 15:59N 01°16' E 103°46'0 0.0
2018-Jul-14 15:30N 01°16' E 103°46'0 0.0
2018-Jul-14 14:59N 01°16' E 103°46'0 0.0
2018-Jul-14 14:30N 01°16' E 103°46'0 0.0
2018-Jul-14 13:29N 01°16' E 103°46'0 0.0
2018-Jul-14 12:59N 01°16' E 103°46'0 0.0
2018-Jul-14 12:30N 01°16' E 103°46'0 0.0
2018-Jul-14 11:59N 01°16' E 103°46'0 0.0
2018-Jul-14 11:29N 01°16' E 103°46'0 0.0
2018-Jul-14 10:59N 01°16' E 103°46'0 0.0
2018-Jul-14 10:30N 01°16' E 103°46'0 0.0
2018-Jul-14 09:59N 01°16' E 103°46'0 0.0
2018-Jul-14 09:30N 01°16' E 103°46'0 0.0
2018-Jul-14 08:59N 01°16' E 103°46'0 0.0
2018-Jul-14 08:30N 01°16' E 103°46'0 0.0
2018-Jul-14 07:57N 01°16' E 103°46'0 0.0
2018-Jul-14 07:29N 01°16' E 103°46'0 0.0
2018-Jul-14 06:59N 01°16' E 103°46'0 0.0
2018-Jul-14 06:29N 01°16' E 103°46'0 0.0
2018-Jul-14 05:59N 01°16' E 103°46'0 0.0
2018-Jul-14 05:30N 01°16' E 103°46'0 0.0
2018-Jul-14 04:59N 01°16' E 103°46'0 0.0
2018-Jul-14 04:30N 01°16' E 103°46'0 0.0
2018-Jul-14 03:59N 01°16' E 103°46'0 0.0
2018-Jul-14 03:29N 01°16' E 103°46'0 0.0
2018-Jul-14 02:59N 01°16' E 103°46'0 0.0
2018-Jul-14 02:30N 01°16' E 103°46'0 0.0
2018-Jul-14 01:59N 01°16' E 103°46'0 0.0
2018-Jul-14 01:30N 01°16' E 103°46'0 0.0
2018-Jul-14 01:00N 01°16' E 103°46'0 0.0
2018-Jul-14 00:29N 01°16' E 103°46'0 0.0
2018-Jul-14 00:00N 01°16' E 103°46'0 0.0
2018-Jul-13 23:30N 01°16' E 103°46'0 0.0
2018-Jul-13 23:00N 01°16' E 103°46'2 3.6
2018-Jul-13 22:31N 01°15' E 103°47'3 6.9
2018-Jul-13 22:00N 01°12' E 103°50'5 9.0
2018-Jul-13 21:30N 01°14' E 103°54'4 7.9
2018-Jul-13 20:59N 01°15' E 103°58'612.0
2018-Jul-13 20:31N 01°16' E 104°03'714.3
2018-Jul-13 20:00N 01°17' E 104°11'713.8
2018-Jul-13 19:30N 01°18' E 104°17'713.5
2018-Jul-13 18:59N 01°22' E 104°23'713.3
2018-Jul-13 18:27N 01°27' E 104°28'56115.4
2018-Jul-12 06:00N 09°24' E 109°24'   260 / 321006.0 5.4 30.023.129.0
2018-Jul-08 14:25N 23°30' E 117°53'1021.0
2018-Jul-08 13:57N 23°37' E 118°00'1020.8
2018-Jul-08 13:29N 23°44' E 118°08'1020.7
2018-Jul-08 13:00N 23°51' E 118°16'1020.4
2018-Jul-08 12:30N 23°58' E 118°24'1120.1
2018-Jul-08 11:56N 24°07' E 118°32'2320.1
2018-Jul-08 10:46N 24°21' E 118°52'1019.8
2018-Jul-08 10:14N 24°28' E 119°01'519.7
2018-Jul-08 10:00N 24°31' E 119°04'1019.3
2018-Jul-08 09:30N 24°37' E 119°13'  
Track history (hours):
 
Tides and Currents Weather Stations Pressure Air Temp Water Temp Dewpoint Dewpoint Depression Visibility Wind Speed Wind Dir Waves Ship Positions

CMA CGM Carmen

Last reported at 2018-Jul-15 18:00 UTC. Time now 2018-Jul-15 20:53 UTC.
Position N 04°18' E 099°12'.

Length 334.1 m; beam 43 m; draft 14.5 m.

Type: Ship (hazmat cat A). MMSI: 636090965.

Wind from 120 at 6 knots

Barometer 1009.7 mb
Air temperature 27.7 ° C
Visibility: greater than 10.8 NM
Dewpoint 23.1 ° C
Water temperature 30.1 ° C

Date/timePositionNaut miles runAvg speedWind from/ knotsBaromVisibWave heightAir tempDewpointWater temp
2018-Jul-15 18:00N 04°18' E 099°12'28314.5 120 / 61009.710.8 27.723.130.1
2018-Jul-14 22:31N 01°31' E 103°01'215.5
2018-Jul-14 22:23N 01°30' E 103°03'615.8
2018-Jul-14 21:59N 01°26' E 103°08'815.9
2018-Jul-14 21:30N 01°22' E 103°14'815.5
2018-Jul-14 20:58N 01°17' E 103°21'714.6
2018-Jul-14 20:30N 01°14' E 103°27'713.5
2018-Jul-14 19:59N 01°12' E 103°34'611.3
2018-Jul-14 19:30N 01°12' E 103°39'4 7.4
2018-Jul-14 19:00N 01°14' E 103°42'5 9.1
2018-Jul-14 18:30N 01°16' E 103°47'0 0.8
2018-Jul-14 17:59N 01°16' E 103°46'0 0.0
2018-Jul-14 17:30N 01°16' E 103°46'0 0.0
2018-Jul-14 16:57N 01°16' E 103°46'0 0.0
2018-Jul-14 16:30N 01°16' E 103°46'0 0.0
2018-Jul-14 15:59N 01°16' E 103°46'0 0.0
2018-Jul-14 15:30N 01°16' E 103°46'0 0.0
2018-Jul-14 14:59N 01°16' E 103°46'0 0.0
2018-Jul-14 14:30N 01°16' E 103°46'0 0.0
2018-Jul-14 13:29N 01°16' E 103°46'0 0.0
2018-Jul-14 12:59N 01°16' E 103°46'0 0.0
2018-Jul-14 12:30N 01°16' E 103°46'0 0.0
2018-Jul-14 11:59N 01°16' E 103°46'0 0.0
2018-Jul-14 11:29N 01°16' E 103°46'0 0.0
2018-Jul-14 10:59N 01°16' E 103°46'0 0.0
2018-Jul-14 10:30N 01°16' E 103°46'0 0.0
2018-Jul-14 09:59N 01°16' E 103°46'0 0.0
2018-Jul-14 09:30N 01°16' E 103°46'0 0.0
2018-Jul-14 08:59N 01°16' E 103°46'0 0.0
2018-Jul-14 08:30N 01°16' E 103°46'0 0.0
2018-Jul-14 07:57N 01°16' E 103°46'0 0.0
2018-Jul-14 07:29N 01°16' E 103°46'0 0.0
2018-Jul-14 06:59N 01°16' E 103°46'0 0.0
2018-Jul-14 06:29N 01°16' E 103°46'0 0.0
2018-Jul-14 05:59N 01°16' E 103°46'0 0.0
2018-Jul-14 05:30N 01°16' E 103°46'0 0.0
2018-Jul-14 04:59N 01°16' E 103°46'0 0.0
2018-Jul-14 04:30N 01°16' E 103°46'0 0.0
2018-Jul-14 03:59N 01°16' E 103°46'0 0.0
2018-Jul-14 03:29N 01°16' E 103°46'0 0.0
2018-Jul-14 02:59N 01°16' E 103°46'0 0.0
2018-Jul-14 02:30N 01°16' E 103°46'0 0.0
2018-Jul-14 01:59N 01°16' E 103°46'0 0.0
2018-Jul-14 01:30N 01°16' E 103°46'0 0.0
2018-Jul-14 01:00N 01°16' E 103°46'0 0.0
2018-Jul-14 00:29N 01°16' E 103°46'0 0.0
2018-Jul-14 00:00N 01°16' E 103°46'0 0.0
2018-Jul-13 23:30N 01°16' E 103°46'0 0.0
2018-Jul-13 23:00N 01°16' E 103°46'2 3.6
2018-Jul-13 22:31N 01°15' E 103°47'3 6.9
2018-Jul-13 22:00N 01°12' E 103°50'5 9.0
2018-Jul-13 21:30N 01°14' E 103°54'4 7.9
2018-Jul-13 20:59N 01°15' E 103°58'612.0
2018-Jul-13 20:31N 01°16' E 104°03'714.3
2018-Jul-13 20:00N 01°17' E 104°11'713.8
2018-Jul-13 19:30N 01°18' E 104°17'713.5
2018-Jul-13 18:59N 01°22' E 104°23'713.3
2018-Jul-13 18:27N 01°27' E 104°28'56115.4
2018-Jul-12 06:00N 09°24' E 109°24'   260 / 321006.0 5.4 30.023.129.0
2018-Jul-08 14:25N 23°30' E 117°53'1021.0
2018-Jul-08 13:57N 23°37' E 118°00'1020.8
2018-Jul-08 13:29N 23°44' E 118°08'1020.7
2018-Jul-08 13:00N 23°51' E 118°16'1020.4
2018-Jul-08 12:30N 23°58' E 118°24'1120.1
2018-Jul-08 11:56N 24°07' E 118°32'2320.1
2018-Jul-08 10:46N 24°21' E 118°52'1019.8
2018-Jul-08 10:14N 24°28' E 119°01'519.7
2018-Jul-08 10:00N 24°31' E 119°04'1019.3
2018-Jul-08 09:30N 24°37' E 119°13'  

Dump ship's entire track history